This is the latest recevied weather packets stored in our database for station/object 7L2IWN-13. If no packets are shown the sender has not sent any weather packets the latest 10 day(s).
| Time | Temp. | Humidity | Pressure | Rain* | Wind** | Luminosity | Snow |
|---|---|---|---|---|---|---|---|
| 1777080860 | 14.44° C | 70% | 1020.2 hPa | 0 mm | - | - | - |
| 1777080140 | 14.44° C | 70% | 1020.2 hPa | 0 mm | - | - | - |
| 1777079422 | 14.44° C | 70% | 1020.2 hPa | 0 mm | - | - | - |
| 1777078702 | 14.44° C | 70% | 1020.2 hPa | 0 mm | - | - | - |
| 1777077982 | 14.44° C | 71% | 1020.1 hPa | 0 mm | - | - | - |
| 1777077261 | 13.33° C | 73% | 1020.1 hPa | 0 mm | - | - | - |
| 1777076541 | 14.44° C | 72% | 1020.2 hPa | 0 mm | - | - | - |
| 1777075823 | 13.89° C | 73% | 1020.5 hPa | 0 mm | - | - | - |
| 1777075102 | 13.33° C | 76% | 1020.5 hPa | 0 mm | - | - | - |
| 1777074383 | 12.78° C | 79% | 1020.2 hPa | 0 mm | - | - | - |
| 1777073662 | 12.22° C | 81% | 1020.5 hPa | 0 mm | - | - | - |
| 1777072941 | 12.22° C | 81% | 1020.4 hPa | 0 mm | - | - | - |
| 1777072221 | 11.67° C | 81% | 1020.4 hPa | 0 mm | - | - | - |
| 1777070062 | 11.11° C | 88% | 1020.4 hPa | 0 mm | - | - | - |
| 1777069341 | 10.56° C | 88% | 1020.6 hPa | 0 mm | - | - | - |
| 1777068620 | 10.56° C | 89% | 1020.4 hPa | 0 mm | - | - | - |
| 1777067901 | 10.56° C | 91% | 1020.2 hPa | 0 mm | - | - | - |
| 1777067182 | 10.56° C | 92% | 1020 hPa | 0 mm | - | - | - |
| 1777066462 | 10.56° C | 94% | 1019.7 hPa | 0 mm | - | - | - |
| 1777065742 | 10° C | 97% | 1019.3 hPa | 0 mm | - | - | - |
| 1777065021 | 10° C | 99% | 1018.9 hPa | 0 mm | - | - | - |
| 1777064301 | 10° C | 99% | 1019.4 hPa | 0 mm | - | - | - |
| 1777063580 | 10° C | 99% | 1019.2 hPa | 0 mm | - | - | - |
| 1777062862 | 10° C | 99% | 1019.3 hPa | 0 mm | - | - | - |
| 1777062142 | 10° C | 99% | 1019 hPa | 0 mm | - | - | - |
* Rain latest hour (hover to see other rain measurements)
** Current wind speed in m/s (hover to see current wind gust speed)